createdAt,value
2023-04-01T00:02:32.940Z,98559.50
2023-04-01T00:07:36.028Z,98569.03
2023-04-01T00:12:38.475Z,98564.13
2023-04-01T00:17:40.835Z,98564.53
2023-04-01T00:22:44.587Z,98565.81
2023-04-01T00:27:47.316Z,98550.69
2023-04-01T00:32:49.538Z,98564.25
2023-04-01T00:37:52.862Z,98565.66
2023-04-01T00:42:54.896Z,98562.28
2023-04-01T00:47:57.355Z,98566.56
2023-04-01T00:53:02.004Z,98561.63
2023-04-01T00:58:06.840Z,98568.75
2023-04-01T01:03:08.730Z,98560.31
2023-04-01T01:08:20.217Z,98558.00
2023-04-01T01:13:32.043Z,98559.94
2023-04-01T01:18:38.247Z,98557.50
2023-04-01T01:24:06.638Z,98553.06
2023-04-01T01:29:20.413Z,98549.91
2023-04-01T01:34:29.952Z,98562.84
2023-04-01T01:39:36.724Z,98561.00
2023-04-01T01:44:41.429Z,98561.09
2023-04-01T01:49:45.749Z,98562.69
2023-04-01T01:54:53.556Z,98563.81
2023-04-01T02:00:01.587Z,98563.78
2023-04-01T02:05:05.207Z,98573.00
2023-04-01T02:10:10.262Z,98554.56
2023-04-01T02:15:15.925Z,98557.00
2023-04-01T02:20:21.974Z,98558.00
2023-04-01T02:25:29.357Z,98555.81
2023-04-01T02:30:34.559Z,98569.50
2023-04-01T02:35:38.863Z,98561.75
2023-04-01T02:40:50.146Z,98564.41
2023-04-01T02:45:52.918Z,98575.72
2023-04-01T02:50:55.701Z,98576.72
2023-04-01T02:55:58.678Z,98580.09
2023-04-01T03:01:00.957Z,98573.19
2023-04-01T03:06:08.415Z,98580.94
2023-04-01T03:11:13.097Z,98587.00
2023-04-01T03:16:16.644Z,98590.50
2023-04-01T03:21:21.498Z,98596.69
2023-04-01T03:26:25.510Z,98594.22
2023-04-01T03:31:28.965Z,98600.34
2023-04-01T03:36:33.302Z,98599.38
2023-04-01T03:41:39.160Z,98594.44
2023-04-01T03:46:41.895Z,98610.81
2023-04-01T03:51:46.470Z,98605.69
2023-04-01T03:56:50.423Z,98613.75
2023-04-01T04:01:53.335Z,98608.22
2023-04-01T04:06:56.252Z,98614.84
2023-04-01T04:12:00.960Z,98611.41
2023-04-01T04:17:03.375Z,98614.16
2023-04-01T04:22:05.605Z,98619.94
2023-04-01T04:27:09.531Z,98628.59
2023-04-01T04:32:21.014Z,98636.69
2023-04-01T04:37:23.539Z,98631.97
2023-04-01T04:42:27.796Z,98640.63
2023-04-01T04:47:35.623Z,98638.94
2023-04-01T04:52:37.689Z,98648.44
2023-04-01T04:57:41.725Z,98646.75
2023-04-01T05:02:44.480Z,98649.41
2023-04-01T05:07:47.173Z,98657.03
2023-04-01T05:12:51.430Z,98652.00
2023-04-01T05:17:57.885Z,98658.97
2023-04-01T05:23:01.561Z,98671.53
2023-04-01T05:28:07.123Z,98667.50
2023-04-01T05:33:09.702Z,98667.59
2023-04-01T05:38:12.523Z,98669.78
2023-04-01T05:43:16.631Z,98678.22
2023-04-01T05:48:22.823Z,98675.59
2023-04-01T05:53:25.582Z,98675.25
2023-04-01T05:58:29.755Z,98677.78
2023-04-01T06:03:32.768Z,98682.16
2023-04-01T06:08:36.258Z,98687.66
2023-04-01T06:13:55.865Z,98685.53
2023-04-01T06:19:15.258Z,98689.56
2023-04-01T06:24:46.223Z,98693.53
2023-04-01T06:30:04.925Z,98697.69
2023-04-01T06:35:23.929Z,98695.06
2023-04-01T06:40:43.870Z,98697.00
2023-04-01T06:45:56.864Z,98698.31
2023-04-01T06:51:30.720Z,98694.25
2023-04-01T06:57:01.709Z,98709.16
2023-04-01T07:02:19.057Z,98709.78
2023-04-01T07:07:26.907Z,98708.19
2023-04-01T07:12:43.540Z,98703.88
2023-04-01T07:18:10.166Z,98711.16
2023-04-01T07:23:23.455Z,98713.13
2023-04-01T07:28:49.423Z,98723.97
2023-04-01T07:34:12.983Z,98728.28
2023-04-01T07:39:29.527Z,98717.91
2023-04-01T07:45:00.787Z,98721.13
2023-04-01T07:50:16.913Z,98741.00
2023-04-01T07:55:28.829Z,98726.31
2023-04-01T08:00:42.203Z,98733.66
2023-04-01T08:06:03.034Z,98736.41
2023-04-01T08:11:15.729Z,98747.41
2023-04-01T08:16:44.977Z,98746.72
2023-04-01T08:22:00.255Z,98766.13
2023-04-01T08:27:08.536Z,98750.59
2023-04-01T08:32:18.605Z,98747.97
2023-04-01T08:37:28.493Z,98758.09
2023-04-01T08:42:57.666Z,98752.78
2023-04-01T08:48:26.827Z,98749.13
2023-04-01T08:53:49.146Z,98769.25
2023-04-01T08:59:10.291Z,98767.88
2023-04-01T09:04:34.420Z,98750.19
2023-04-01T09:09:56.140Z,98771.41
2023-04-01T09:15:16.103Z,98760.59
2023-04-01T09:20:43.561Z,98761.47
2023-04-01T09:25:56.811Z,98773.06
2023-04-01T09:31:14.258Z,98774.31
2023-04-01T09:36:46.616Z,98774.63
2023-04-01T09:42:05.818Z,98771.34
2023-04-01T09:47:29.623Z,98767.56
2023-04-01T09:52:39.463Z,98774.25
2023-04-01T09:58:29.419Z,98773.84
2023-04-01T10:04:25.851Z,98778.38
2023-04-01T10:10:12.891Z,98776.41
2023-04-01T10:15:39.100Z,98783.84
2023-04-01T10:21:16.044Z,98795.16
2023-04-01T10:26:46.636Z,98783.63
2023-04-01T10:32:57.395Z,98785.06
2023-04-01T10:38:22.765Z,98785.75
2023-04-01T10:43:59.562Z,98787.03
2023-04-01T10:49:33.578Z,98780.56
2023-04-01T10:54:50.159Z,98783.25
2023-04-01T11:00:48.616Z,98781.81
2023-04-01T11:06:35.730Z,98790.06
2023-04-01T11:12:06.548Z,98789.66
2023-04-01T11:17:30.202Z,98786.28
2023-04-01T11:23:10.803Z,98780.91
2023-04-01T11:28:46.910Z,98783.97
2023-04-01T11:33:57.568Z,98782.56
2023-04-01T11:39:15.016Z,98787.25
2023-04-01T11:44:43.375Z,98798.19
2023-04-01T11:49:58.972Z,98810.66
2023-04-01T11:55:34.605Z,98805.19
2023-04-01T12:01:00.337Z,98802.19
2023-04-01T12:06:07.598Z,98801.44
2023-04-01T12:11:19.814Z,98795.72
2023-04-01T12:16:42.563Z,98794.84
2023-04-01T12:21:52.752Z,98789.31
2023-04-01T12:27:10.915Z,98790.47
2023-04-01T12:32:21.786Z,98807.25
2023-04-01T12:37:37.333Z,98795.75
2023-04-01T12:42:55.095Z,98797.16
2023-04-01T12:48:30.708Z,98800.13
2023-04-01T12:53:47.030Z,98807.78
2023-04-01T12:59:15.655Z,98812.97
2023-04-01T13:04:52.874Z,98802.81
2023-04-01T13:10:04.121Z,98803.44
2023-04-01T13:15:29.254Z,98800.53
2023-04-01T13:20:50.534Z,98799.13
2023-04-01T13:26:13.524Z,98806.63
2023-04-01T13:31:34.843Z,98812.13
2023-04-01T13:36:48.106Z,98811.03
2023-04-01T13:42:06.833Z,98812.00
2023-04-01T13:47:36.767Z,98813.50
2023-04-01T13:53:07.475Z,98803.22
2023-04-01T13:58:29.154Z,98797.03
2023-04-01T14:03:40.967Z,98815.22
2023-04-01T14:08:58.229Z,98811.63
2023-04-01T14:14:09.541Z,98815.25
2023-04-01T14:19:27.176Z,98824.56
2023-04-01T14:24:47.127Z,98815.75
2023-04-01T14:30:00.289Z,98827.59
2023-04-01T14:35:21.236Z,98827.00
2023-04-01T14:40:30.648Z,98832.84
2023-04-01T14:45:48.463Z,98838.81
2023-04-01T14:50:54.463Z,98842.81
2023-04-01T14:56:04.966Z,98869.19
2023-04-01T15:01:18.193Z,98848.69
2023-04-01T15:06:57.975Z,98854.50
2023-04-01T15:12:13.939Z,98859.13
2023-04-01T15:17:53.597Z,98863.19
2023-04-01T15:23:15.214Z,98877.88
2023-04-01T15:28:32.521Z,98880.69
2023-04-01T15:33:49.115Z,98884.38
2023-04-01T15:38:55.737Z,98888.28
2023-04-01T15:43:56.402Z,98902.03
2023-04-01T15:49:11.014Z,98902.34
2023-04-01T15:54:34.320Z,98906.50
2023-04-01T15:59:52.475Z,98907.00
2023-04-01T16:05:00.848Z,98905.34
2023-04-01T16:10:18.478Z,98917.13
2023-04-01T16:15:30.443Z,98922.34
2023-04-01T16:20:46.404Z,98927.25
2023-04-01T16:25:55.559Z,98931.25
2023-04-01T16:31:00.896Z,98935.78
2023-04-01T16:36:11.671Z,98937.56
2023-04-01T16:41:21.527Z,98955.97
2023-04-01T16:46:37.068Z,98957.22
2023-04-01T16:51:46.452Z,98969.72
2023-04-01T16:56:53.547Z,98970.84
2023-04-01T17:01:58.814Z,98974.13
2023-04-01T17:07:08.347Z,98989.06
2023-04-01T17:12:22.026Z,98994.13
2023-04-01T17:17:34.722Z,99002.78
2023-04-01T17:22:42.796Z,99012.69
2023-04-01T17:27:54.175Z,99023.59
2023-04-01T17:33:25.367Z,99033.25
2023-04-01T17:38:42.911Z,99034.47
2023-04-01T17:43:52.355Z,99042.75
2023-04-01T17:48:59.437Z,99052.25
2023-04-01T17:54:15.049Z,99057.53
2023-04-01T17:59:26.435Z,99053.09
2023-04-01T18:04:39.388Z,99056.16
2023-04-01T18:09:50.566Z,99059.66
2023-04-01T18:15:12.947Z,99070.03
2023-04-01T18:20:34.501Z,99071.84
2023-04-01T18:25:39.140Z,99076.44
2023-04-01T18:30:42.803Z,99082.41
2023-04-01T18:35:52.646Z,99094.22
2023-04-01T18:41:03.322Z,99100.44
2023-04-01T18:46:18.738Z,99101.50
2023-04-01T18:51:26.027Z,99112.28
2023-04-01T18:56:33.513Z,99123.91
2023-04-01T19:01:44.254Z,99124.06
2023-04-01T19:06:48.656Z,99130.19
2023-04-01T19:12:12.030Z,99134.56
2023-04-01T19:17:24.474Z,99147.63
2023-04-01T19:22:42.692Z,99147.72
2023-04-01T19:27:49.778Z,99152.94
2023-04-01T19:33:00.954Z,99159.34
2023-04-01T19:38:07.452Z,99163.03
2023-04-01T19:43:21.093Z,99163.44
2023-04-01T19:48:42.077Z,99176.38
2023-04-01T19:53:53.745Z,99185.13
2023-04-01T19:58:58.583Z,99187.69
2023-04-01T20:04:06.867Z,99193.63
2023-04-01T20:09:29.072Z,99205.63
2023-04-01T20:14:38.444Z,99210.06
2023-04-01T20:19:46.176Z,99215.19
2023-04-01T20:24:49.188Z,99222.03
2023-04-01T20:30:06.466Z,99226.25
2023-04-01T20:35:38.742Z,99227.94
2023-04-01T20:40:46.329Z,99233.09
2023-04-01T20:45:58.394Z,99238.38
2023-04-01T20:51:08.409Z,99251.50
2023-04-01T20:56:19.564Z,99248.22
2023-04-01T21:01:34.621Z,99258.59
2023-04-01T21:06:54.917Z,99258.69
2023-04-01T21:12:06.141Z,99265.72
2023-04-01T21:17:15.692Z,99273.00
2023-04-01T21:22:39.432Z,99280.81
2023-04-01T21:28:10.943Z,99291.03
2023-04-01T21:33:39.810Z,99292.97
2023-04-01T21:38:59.851Z,99298.78
2023-04-01T21:44:32.315Z,99302.81
2023-04-01T21:50:00.818Z,99313.81
2023-04-01T21:55:32.280Z,99312.34
2023-04-01T22:00:41.229Z,99319.44
2023-04-01T22:05:50.464Z,99324.75
2023-04-01T22:11:00.327Z,99330.28
2023-04-01T22:16:18.680Z,99336.66
2023-04-01T22:21:30.673Z,99332.63
2023-04-01T22:26:41.200Z,99346.72
2023-04-01T22:31:49.754Z,99356.19
2023-04-01T22:37:01.027Z,99369.28
2023-04-01T22:42:16.255Z,99374.78
2023-04-01T22:47:29.524Z,99374.69
2023-04-01T22:52:38.201Z,99385.13
2023-04-01T22:57:49.138Z,99386.91
2023-04-01T23:03:09.297Z,99402.00
2023-04-01T23:08:49.179Z,99409.00
2023-04-01T23:13:55.866Z,99421.31
2023-04-01T23:19:04.197Z,99415.31
2023-04-01T23:24:18.158Z,99424.25
2023-04-01T23:29:22.702Z,99439.88
2023-04-01T23:34:31.033Z,99442.56
2023-04-01T23:39:37.166Z,99455.78
2023-04-01T23:44:40.100Z,99461.13
2023-04-01T23:49:49.461Z,99465.63
2023-04-01T23:54:56.626Z,99475.31
